Impacts TAF Board INFO
FOR SITUATIONAL AWARENESS. NOT TO BE USED FOR FLIGHT PLANNING PURPOSES.
IDs:

KMSP - Minneapolis-St Paul, MN, US

Issued at 0259 UTC 13 Dec 2017
Updated at 0337 UTC 13 Dec 2017
Potential Impact None Slight Moderate High
Time<<14/04Z 14/05Z 14/06Z 14/07Z 14/08Z 14/09Z 14/10Z 14/11Z 14/12Z 14/13Z 14/14Z 14/15Z 14/16Z
Type PRVL PRVL
VIS >6 >6
CIG 25 25
Cover OVC OVC
FltCat MVFR MVFR
WX -- --
WDir 340 340
WSpd 13 13
WGst 19 19

Raw TAF
KMSP 130259Z 1303/1406 15004KT P6SM BKN040 OVC070
  FM130900 29006KT 6SM -SN BR OVC015
  TEMPO 1309/1313 5SM -FZDZ BR OVC012
  FM131500 32016G29KT P6SM VCSH OVC008
  FM131800 32018G30KT P6SM OVC015
  FM140000 34013G19KT P6SM OVC025


METAR Board
Radar Display
Forecast Discussion

FOR SITUATIONAL AWARENESS. NOT TO BE USED FOR FLIGHT PLANNING PURPOSES.